sensor_id;sensor_type;location;lat;lon;timestamp;pressure;altitude;pressure_sealevel;temperature;humidity
57799;BME280;43626;53.866;30.298;2023-03-03T00:04:00;1018.4;;;2.1;62.7
57799;BME280;43626;53.866;30.298;2023-03-03T00:09:14;1018.4;;;2.1;62.8
57799;BME280;43626;53.866;30.298;2023-03-03T00:13:26;1018.3;;;2.1;62.9
57799;BME280;43626;53.866;30.298;2023-03-03T00:18:58;1018.2;;;2.1;62.9
57799;BME280;43626;53.866;30.298;2023-03-03T00:23:29;1018.1;;;2.1;62.9
57799;BME280;43626;53.866;30.298;2023-03-03T00:28:40;1018.1;;;2;63
57799;BME280;43626;53.866;30.298;2023-03-03T00:33:53;1017.9;;;2;63
57799;BME280;43626;53.866;30.298;2023-03-03T00:38:33;1017.9;;;2.1;63
57799;BME280;43626;53.866;30.298;2023-03-03T00:44:44;1017.9;;;2;63.2
57799;BME280;43626;53.866;30.298;2023-03-03T00:48:50;1017.9;;;2;63.4
57799;BME280;43626;53.866;30.298;2023-03-03T00:54:00;1017.9;;;2;63.8
57799;BME280;43626;53.866;30.298;2023-03-03T00:59:14;1017.9;;;2;64.1
57799;BME280;43626;53.866;30.298;2023-03-03T01:03:42;1017.8;;;1.9;64.4
57799;BME280;43626;53.866;30.298;2023-03-03T01:09:00;1017.9;;;1.9;64.8
57799;BME280;43626;53.866;30.298;2023-03-03T01:13:48;1017.9;;;1.9;65
57799;BME280;43626;53.866;30.298;2023-03-03T01:18:58;1017.9;;;1.9;64.8
57799;BME280;43626;53.866;30.298;2023-03-03T01:24:04;1017.8;;;2;64.7
57799;BME280;43626;53.866;30.298;2023-03-03T01:28:34;1017.7;;;2;64.5
57799;BME280;43626;53.866;30.298;2023-03-03T01:34:00;1017.7;;;2;64.5
57799;BME280;43626;53.866;30.298;2023-03-03T01:38:37;1017.6;;;2;64.5
57799;BME280;43626;53.866;30.298;2023-03-03T01:44:00;1017.7;;;2;64.5
57799;BME280;43626;53.866;30.298;2023-03-03T01:49:15;1017.7;;;2;64.7
57799;BME280;43626;53.866;30.298;2023-03-03T01:54:16;1017.6;;;2;64.6
57799;BME280;43626;53.866;30.298;2023-03-03T01:59:01;1017.6;;;2;64.7
57799;BME280;43626;53.866;30.298;2023-03-03T02:03:26;1017.4;;;2;64.5
57799;BME280;43626;53.866;30.298;2023-03-03T02:08:59;1017.4;;;2;64.5
57799;BME280;43626;53.866;30.298;2023-03-03T02:14:14;1017.4;;;2.1;64.4
57799;BME280;43626;53.866;30.298;2023-03-03T02:18:46;1017.4;;;2.1;64.2
57799;BME280;43626;53.866;30.298;2023-03-03T02:23:59;1017.3;;;2.2;64.1
57799;BME280;43626;53.866;30.298;2023-03-03T02:28:27;1017.4;;;2.2;63.9
57799;BME280;43626;53.866;30.298;2023-03-03T02:34:01;1017.4;;;2.2;63.9
57799;BME280;43626;53.866;30.298;2023-03-03T02:38:50;1017.4;;;2.2;63.8
57799;BME280;43626;53.866;30.298;2023-03-03T02:44:01;1017.3;;;2.1;63.7
57799;BME280;43626;53.866;30.298;2023-03-03T02:48:38;1017.3;;;2.1;63.8
57799;BME280;43626;53.866;30.298;2023-03-03T02:53:34;1017.2;;;2;63.8
57799;BME280;43626;53.866;30.298;2023-03-03T02:59:05;1017.1;;;2;63.8
57799;BME280;43626;53.866;30.298;2023-03-03T03:03:38;1017.1;;;2;63.9
57799;BME280;43626;53.866;30.298;2023-03-03T03:09:11;1017;;;2;64
57799;BME280;43626;53.866;30.298;2023-03-03T03:13:46;1016.9;;;2;64
57799;BME280;43626;53.866;30.298;2023-03-03T03:18:46;1016.9;;;1.9;64
57799;BME280;43626;53.866;30.298;2023-03-03T03:24:04;1016.8;;;1.9;64
57799;BME280;43626;53.866;30.298;2023-03-03T03:28:50;1016.8;;;1.9;63.9
57799;BME280;43626;53.866;30.298;2023-03-03T03:34:14;1016.8;;;1.8;63.9
57799;BME280;43626;53.866;30.298;2023-03-03T03:38:48;1016.8;;;1.8;64
57799;BME280;43626;53.866;30.298;2023-03-03T03:43:26;1016.8;;;1.7;64.2
57799;BME280;43626;53.866;30.298;2023-03-03T03:49:04;1016.7;;;1.6;64.4
57799;BME280;43626;53.866;30.298;2023-03-03T03:53:50;1016.6;;;1.6;64.5
57799;BME280;43626;53.866;30.298;2023-03-03T03:59:00;1016.6;;;1.6;64.6
57799;BME280;43626;53.866;30.298;2023-03-03T04:03:50;1016.6;;;1.5;64.7
57799;BME280;43626;53.866;30.298;2023-03-03T04:08:34;1016.5;;;1.5;64.6
57799;BME280;43626;53.866;30.298;2023-03-03T04:14:06;1016.5;;;1.5;64.5
57799;BME280;43626;53.866;30.298;2023-03-03T04:18:52;1016.4;;;1.5;64.4
57799;BME280;43626;53.866;30.298;2023-03-03T04:24:14;1016.3;;;1.5;64.5
57799;BME280;43626;53.866;30.298;2023-03-03T04:28:52;1016.3;;;1.5;64.4
57799;BME280;43626;53.866;30.298;2023-03-03T04:33:44;1016.2;;;1.6;64.1
57799;BME280;43626;53.866;30.298;2023-03-03T04:38:52;1016.1;;;1.6;64.1
57799;BME280;43626;53.866;30.298;2023-03-03T04:43:38;1016.1;;;1.5;64
57799;BME280;43626;53.866;30.298;2023-03-03T04:49:16;1016;;;1.5;64
57799;BME280;43626;53.866;30.298;2023-03-03T04:53:52;1016;;;1.4;64
57799;BME280;43626;53.866;30.298;2023-03-03T04:58:38;1015.9;;;1.4;64
57799;BME280;43626;53.866;30.298;2023-03-03T05:04:04;1015.9;;;1.4;64
57799;BME280;43626;53.866;30.298;2023-03-03T05:08:52;1016;;;1.4;63.9
57799;BME280;43626;53.866;30.298;2023-03-03T05:14:16;1015.9;;;1.4;64
57799;BME280;43626;53.866;30.298;2023-03-03T05:18:52;1015.9;;;1.3;64.1
57799;BME280;43626;53.866;30.298;2023-03-03T05:23:46;1015.9;;;1.3;64.2
57799;BME280;43626;53.866;30.298;2023-03-03T05:29:07;1015.9;;;1.3;64.3
57799;BME280;43626;53.866;30.298;2023-03-03T05:33:53;1015.9;;;1.2;64.5
57799;BME280;43626;53.866;30.298;2023-03-03T05:39:10;1016;;;1.2;64.7
57799;BME280;43626;53.866;30.298;2023-03-03T05:43:50;1016.1;;;1.2;65
57799;BME280;43626;53.866;30.298;2023-03-03T05:48:36;1016.1;;;1.3;65
57799;BME280;43626;53.866;30.298;2023-03-03T05:54:06;1016;;;1.4;64.9
57799;BME280;43626;53.866;30.298;2023-03-03T05:58:26;1016;;;1.4;64.9
57799;BME280;43626;53.866;30.298;2023-03-03T06:04:16;1016;;;1.5;64.9
57799;BME280;43626;53.866;30.298;2023-03-03T06:08:52;1016;;;1.6;64.7
57799;BME280;43626;53.866;30.298;2023-03-03T06:13:58;1016.1;;;1.6;64.7
57799;BME280;43626;53.866;30.298;2023-03-03T06:18:54;1016;;;1.6;64.7
57799;BME280;43626;53.866;30.298;2023-03-03T06:23:26;1016;;;1.6;64.6
57799;BME280;43626;53.866;30.298;2023-03-03T06:29:14;1016;;;1.6;64.3
57799;BME280;43626;53.866;30.298;2023-03-03T06:33:48;1015.9;;;1.6;64.3
57799;BME280;43626;53.866;30.298;2023-03-03T06:38:26;1015.9;;;1.6;63.9
57799;BME280;43626;53.866;30.298;2023-03-03T06:44:04;1015.9;;;1.5;63.7
57799;BME280;43626;53.866;30.298;2023-03-03T06:48:42;1015.9;;;1.4;63.9
57799;BME280;43626;53.866;30.298;2023-03-03T06:54:15;1015.9;;;1.5;63.7
57799;BME280;43626;53.866;30.298;2023-03-03T06:59:12;1015.9;;;1.5;63.8
57799;BME280;43626;53.866;30.298;2023-03-03T07:03:38;1015.8;;;1.6;63.5
57799;BME280;43626;53.866;30.298;2023-03-03T07:09:05;1015.9;;;1.6;63.2
57799;BME280;43626;53.866;30.298;2023-03-03T07:13:36;1015.8;;;1.6;63.1
57799;BME280;43626;53.866;30.298;2023-03-03T07:19:18;1015.7;;;1.7;63.1
57799;BME280;43626;53.866;30.298;2023-03-03T07:23:53;1015.7;;;1.8;62.7
57799;BME280;43626;53.866;30.298;2023-03-03T07:28:27;1015.7;;;1.8;62.5
57799;BME280;43626;53.866;30.298;2023-03-03T07:34:13;1015.7;;;1.9;62
57799;BME280;43626;53.866;30.298;2023-03-03T07:38:37;1015.8;;;2;60.8
57799;BME280;43626;53.866;30.298;2023-03-03T07:44:16;1015.7;;;2;60.5
57799;BME280;43626;53.866;30.298;2023-03-03T07:48:29;1015.7;;;2.1;60.1
57799;BME280;43626;53.866;30.298;2023-03-03T07:53:28;1015.8;;;2.1;59.6
57799;BME280;43626;53.866;30.298;2023-03-03T07:59:01;1015.8;;;2.1;59.8
57799;BME280;43626;53.866;30.298;2023-03-03T08:03:26;1015.8;;;2.1;60
57799;BME280;43626;53.866;30.298;2023-03-03T08:09:23;1015.8;;;2.1;60
57799;BME280;43626;53.866;30.298;2023-03-03T08:13:27;1015.8;;;2.2;60.1
57799;BME280;43626;53.866;30.298;2023-03-03T08:18:45;1015.9;;;2.3;60
57799;BME280;43626;53.866;30.298;2023-03-03T08:24:03;1015.9;;;2.3;59.7
57799;BME280;43626;53.866;30.298;2023-03-03T08:28:37;1015.9;;;2.4;59.5
57799;BME280;43626;53.866;30.298;2023-03-03T08:34:12;1016;;;2.5;58.9
57799;BME280;43626;53.866;30.298;2023-03-03T08:38:58;1015.9;;;2.6;58.3
57799;BME280;43626;53.866;30.298;2023-03-03T08:43:34;1015.8;;;2.7;57.9
57799;BME280;43626;53.866;30.298;2023-03-03T08:49:02;1015.7;;;2.8;57.6
57799;BME280;43626;53.866;30.298;2023-03-03T08:53:26;1015.6;;;3;57.4
57799;BME280;43626;53.866;30.298;2023-03-03T08:59:14;1015.6;;;3.2;57.1
57799;BME280;43626;53.866;30.298;2023-03-03T09:03:36;1015.5;;;3.3;57
57799;BME280;43626;53.866;30.298;2023-03-03T09:08:34;1015.5;;;3.3;56.8
57799;BME280;43626;53.866;30.298;2023-03-03T09:14:06;1015.5;;;3.3;56.9
57799;BME280;43626;53.866;30.298;2023-03-03T09:18:35;1015.4;;;3.4;56.7
57799;BME280;43626;53.866;30.298;2023-03-03T09:24:18;1015.4;;;3.5;56.5
57799;BME280;43626;53.866;30.298;2023-03-03T09:28:40;1015.3;;;3.6;55.6
57799;BME280;43626;53.866;30.298;2023-03-03T09:33:39;1015.2;;;3.5;54.9
57799;BME280;43626;53.866;30.298;2023-03-03T09:39:10;1015.2;;;3.5;54.8
57799;BME280;43626;53.866;30.298;2023-03-03T09:43:27;1015.1;;;3.6;54.7
57799;BME280;43626;53.866;30.298;2023-03-03T09:49:16;1015.1;;;3.6;54.5
57799;BME280;43626;53.866;30.298;2023-03-03T09:53:52;1015.1;;;3.7;54.5
57799;BME280;43626;53.866;30.298;2023-03-03T09:58:31;1015;;;3.6;54.9
57799;BME280;43626;53.866;30.298;2023-03-03T10:04:10;1015;;;3.6;55.1
57799;BME280;43626;53.866;30.298;2023-03-03T10:08:48;1015;;;3.7;55.1
57799;BME280;43626;53.866;30.298;2023-03-03T10:14:32;1014.9;;;3.7;54.9
57799;BME280;43626;53.866;30.298;2023-03-03T10:18:28;1014.9;;;3.7;54.8
57799;BME280;43626;53.866;30.298;2023-03-03T10:24:18;1014.8;;;3.6;54.7
57799;BME280;43626;53.866;30.298;2023-03-03T10:29:12;1014.7;;;3.6;54.4
57799;BME280;43626;53.866;30.298;2023-03-03T10:33:28;1014.6;;;3.6;54.3
57799;BME280;43626;53.866;30.298;2023-03-03T10:39:17;1014.6;;;3.8;53.8
57799;BME280;43626;53.866;30.298;2023-03-03T10:43:47;1014.6;;;3.9;53.4
57799;BME280;43626;53.866;30.298;2023-03-03T10:49:13;1014.7;;;4;53.3
57799;BME280;43626;53.866;30.298;2023-03-03T10:54:07;1014.7;;;4.1;53.4
57799;BME280;43626;53.866;30.298;2023-03-03T10:58:44;1014.6;;;4.2;53.5
57799;BME280;43626;53.866;30.298;2023-03-03T11:04:45;1014.6;;;4.4;53.3
57799;BME280;43626;53.866;30.298;2023-03-03T11:08:50;1014.5;;;4.4;53.1
57799;BME280;43626;53.866;30.298;2023-03-03T11:14:15;1014.4;;;4.4;53.1
57799;BME280;43626;53.866;30.298;2023-03-03T11:19:05;1014.3;;;4.5;52.8
57799;BME280;43626;53.866;30.298;2023-03-03T11:23:35;1014.3;;;4.5;52.5
57799;BME280;43626;53.866;30.298;2023-03-03T11:29:16;1014.2;;;4.5;52.2
57799;BME280;43626;53.866;30.298;2023-03-03T11:33:52;1014.2;;;4.6;51.8
57799;BME280;43626;53.866;30.298;2023-03-03T11:39:13;1014.2;;;4.6;51.4
57799;BME280;43626;53.866;30.298;2023-03-03T11:44:05;1014.1;;;4.7;51.5
57799;BME280;43626;53.866;30.298;2023-03-03T11:48:35;1013.9;;;4.8;51.6
57799;BME280;43626;53.866;30.298;2023-03-03T11:54:14;1013.9;;;4.9;51.7
57799;BME280;43626;53.866;30.298;2023-03-03T11:58:41;1013.8;;;4.9;51.5
57799;BME280;43626;53.866;30.298;2023-03-03T12:04:15;1013.8;;;5.2;51.4
57799;BME280;43626;53.866;30.298;2023-03-03T12:09:00;1013.7;;;5.4;51
57799;BME280;43626;53.866;30.298;2023-03-03T12:14:19;1013.7;;;5.4;50.6
57799;BME280;43626;53.866;30.298;2023-03-03T12:19:18;1013.6;;;5.4;50.1
57799;BME280;43626;53.866;30.298;2023-03-03T12:24:06;1013.6;;;5.4;49.7
57799;BME280;43626;53.866;30.298;2023-03-03T12:29:21;1013.6;;;5.3;49.7
57799;BME280;43626;53.866;30.298;2023-03-03T12:34:07;1013.5;;;5.2;50
57799;BME280;43626;53.866;30.298;2023-03-03T12:38:47;1013.5;;;5.1;49.9
57799;BME280;43626;53.866;30.298;2023-03-03T12:44:16;1013.4;;;5.1;50.2
57799;BME280;43626;53.866;30.298;2023-03-03T12:48:50;1013.4;;;5.1;50.7
57799;BME280;43626;53.866;30.298;2023-03-03T12:54:19;1013.4;;;5;50.9
57799;BME280;43626;53.866;30.298;2023-03-03T12:59:03;1013.4;;;4.9;51.1
57799;BME280;43626;53.866;30.298;2023-03-03T13:04:02;1013.3;;;4.9;51.5
57799;BME280;43626;53.866;30.298;2023-03-03T13:09:21;1013.3;;;4.8;51.8
57799;BME280;43626;53.866;30.298;2023-03-03T13:13:54;1013.3;;;4.7;51.9
57799;BME280;43626;53.866;30.298;2023-03-03T13:19:15;1013.2;;;4.6;52.3
57799;BME280;43626;53.866;30.298;2023-03-03T13:24:10;1013.2;;;4.4;52.7
57799;BME280;43626;53.866;30.298;2023-03-03T13:28:37;1013.3;;;4.2;53.7
57799;BME280;43626;53.866;30.298;2023-03-03T13:34:19;1013.3;;;4.1;54.5
57799;BME280;43626;53.866;30.298;2023-03-03T13:38:53;1013.2;;;4;54.9
57799;BME280;43626;53.866;30.298;2023-03-03T13:44:16;1013.2;;;4.1;54.7
57799;BME280;43626;53.866;30.298;2023-03-03T13:49:09;1013.1;;;4.1;54.6
57799;BME280;43626;53.866;30.298;2023-03-03T13:53:41;1013.1;;;4.2;54.6
57799;BME280;43626;53.866;30.298;2023-03-03T13:59:18;1013;;;4.3;54.4
57799;BME280;43626;53.866;30.298;2023-03-03T14:03:55;1013;;;4.3;54.4
57799;BME280;43626;53.866;30.298;2023-03-03T14:09:11;1013;;;4.4;54.2
57799;BME280;43626;53.866;30.298;2023-03-03T14:14:03;1013;;;4.3;54.3
57799;BME280;43626;53.866;30.298;2023-03-03T14:18:40;1013;;;4.3;54.2
57799;BME280;43626;53.866;30.298;2023-03-03T14:24:13;1013;;;4.2;54.2
57799;BME280;43626;53.866;30.298;2023-03-03T14:28:51;1012.9;;;4.1;53.8
57799;BME280;43626;53.866;30.298;2023-03-03T14:33:56;1012.9;;;4;53
57799;BME280;43626;53.866;30.298;2023-03-03T14:39:24;1012.8;;;4;53.5
57799;BME280;43626;53.866;30.298;2023-03-03T14:43:32;1012.9;;;3.9;53.6
57799;BME280;43626;53.866;30.298;2023-03-03T14:49:13;1012.8;;;3.8;54
57799;BME280;43626;53.866;30.298;2023-03-03T14:53:51;1012.9;;;3.8;54.2
57799;BME280;43626;53.866;30.298;2023-03-03T14:59:10;1012.9;;;3.8;54.7
57799;BME280;43626;53.866;30.298;2023-03-03T15:04:22;1013;;;3.8;55
57799;BME280;43626;53.866;30.298;2023-03-03T15:08:38;1013.1;;;3.8;55.2
57799;BME280;43626;53.866;30.298;2023-03-03T15:14:09;1013.1;;;3.5;57
57799;BME280;43626;53.866;30.298;2023-03-03T15:19:21;1013;;;3.3;59.2
57799;BME280;43626;53.866;30.298;2023-03-03T15:24:00;1013;;;3.2;60
57799;BME280;43626;53.866;30.298;2023-03-03T15:29:14;1013;;;3.2;60.2
57799;BME280;43626;53.866;30.298;2023-03-03T15:33:37;1013.1;;;3.2;60.1
57799;BME280;43626;53.866;30.298;2023-03-03T15:39:14;1013.1;;;3.1;60.9
57799;BME280;43626;53.866;30.298;2023-03-03T15:43:55;1013.2;;;3;61.6
57799;BME280;43626;53.866;30.298;2023-03-03T15:49:01;1013.2;;;2.8;62.3
57799;BME280;43626;53.866;30.298;2023-03-03T15:54:16;1013.2;;;2.6;63
57799;BME280;43626;53.866;30.298;2023-03-03T15:58:53;1013.4;;;2.4;63.5
57799;BME280;43626;53.866;30.298;2023-03-03T16:04:13;1013.5;;;2.1;63.6
57799;BME280;43626;53.866;30.298;2023-03-03T16:08:41;1013.5;;;1.9;63.9
57799;BME280;43626;53.866;30.298;2023-03-03T16:14:01;1013.4;;;1.6;65.7
57799;BME280;43626;53.866;30.298;2023-03-03T16:19:17;1013.3;;;1.5;66.8
57799;BME280;43626;53.866;30.298;2023-03-03T16:23:38;1013.3;;;1.6;67.1
57799;BME280;43626;53.866;30.298;2023-03-03T16:29:32;1013.3;;;1.7;67.3
57799;BME280;43626;53.866;30.298;2023-03-03T16:33:52;1013.3;;;1.8;67
57799;BME280;43626;53.866;30.298;2023-03-03T16:38:59;1013.3;;;1.9;66.8
57799;BME280;43626;53.866;30.298;2023-03-03T16:44:02;1013.3;;;2;66.1
57799;BME280;43626;53.866;30.298;2023-03-03T16:48:41;1013.4;;;2;65.7
57799;BME280;43626;53.866;30.298;2023-03-03T16:54:14;1013.3;;;2;65.4
57799;BME280;43626;53.866;30.298;2023-03-03T16:58:29;1013.3;;;2;65.2
57799;BME280;43626;53.866;30.298;2023-03-03T17:03:59;1013.3;;;1.9;65.2
57799;BME280;43626;53.866;30.298;2023-03-03T17:09:22;1013.3;;;1.9;65.3
57799;BME280;43626;53.866;30.298;2023-03-03T17:13:35;1013.3;;;1.9;65.7
57799;BME280;43626;53.866;30.298;2023-03-03T17:19:15;1013.3;;;1.8;66
57799;BME280;43626;53.866;30.298;2023-03-03T17:23:53;1013.2;;;1.8;65.9
57799;BME280;43626;53.866;30.298;2023-03-03T17:29:17;1013.3;;;1.8;66
57799;BME280;43626;53.866;30.298;2023-03-03T17:34:16;1013.2;;;1.8;66.3
57799;BME280;43626;53.866;30.298;2023-03-03T17:39:02;1013.2;;;1.8;66.5
57799;BME280;43626;53.866;30.298;2023-03-03T17:44:14;1013.1;;;1.8;66.3
57799;BME280;43626;53.866;30.298;2023-03-03T17:48:58;1013.2;;;1.8;66.2
57799;BME280;43626;53.866;30.298;2023-03-03T17:54:02;1013.1;;;1.8;66.4
57799;BME280;43626;53.866;30.298;2023-03-03T17:59:15;1013.1;;;1.8;66.4
57799;BME280;43626;53.866;30.298;2023-03-03T18:03:46;1013.1;;;1.8;66.4
57799;BME280;43626;53.866;30.298;2023-03-03T18:09:12;1013.1;;;1.8;66.2
57799;BME280;43626;53.866;30.298;2023-03-03T18:14:12;1013.1;;;1.7;66.1
57799;BME280;43626;53.866;30.298;2023-03-03T18:19:01;1013.1;;;1.7;65.9
57799;BME280;43626;53.866;30.298;2023-03-03T18:24:23;1013.1;;;1.6;66
57799;BME280;43626;53.866;30.298;2023-03-03T18:28:43;1013.1;;;1.5;66
57799;BME280;43626;53.866;30.298;2023-03-03T18:33:59;1013.2;;;1.5;65.9
57799;BME280;43626;53.866;30.298;2023-03-03T18:39:01;1013.2;;;1.5;65.9
57799;BME280;43626;53.866;30.298;2023-03-03T18:44:28;1013.1;;;1.4;65.8
57799;BME280;43626;53.866;30.298;2023-03-03T18:49:02;1013.2;;;1.4;65.7
57799;BME280;43626;53.866;30.298;2023-03-03T18:53:37;1013.2;;;1.4;65.6
57799;BME280;43626;53.866;30.298;2023-03-03T18:58:29;1013.2;;;1.3;65.5
57799;BME280;43626;53.866;30.298;2023-03-03T19:04:08;1013.2;;;1.3;65.4
57799;BME280;43626;53.866;30.298;2023-03-03T19:09:11;1013.2;;;1.1;65.6
57799;BME280;43626;53.866;30.298;2023-03-03T19:14:31;1013.2;;;1.1;65.7
57799;BME280;43626;53.866;30.298;2023-03-03T19:18:27;1013.3;;;1;65.8
57799;BME280;43626;53.866;30.298;2023-03-03T19:23:48;1013.3;;;1;65.8
57799;BME280;43626;53.866;30.298;2023-03-03T19:28:40;1013.3;;;1;66
57799;BME280;43626;53.866;30.298;2023-03-03T19:34:14;1013.3;;;1;66.2
57799;BME280;43626;53.866;30.298;2023-03-03T19:39:05;1013.2;;;1;66.3
57799;BME280;43626;53.866;30.298;2023-03-03T19:43:31;1013.2;;;1;66.4
57799;BME280;43626;53.866;30.298;2023-03-03T19:48:30;1013.2;;;1.1;66.4
57799;BME280;43626;53.866;30.298;2023-03-03T19:53:30;1013.1;;;1.2;66.4
57799;BME280;43626;53.866;30.298;2023-03-03T19:59:15;1013.1;;;1.3;66.4
57799;BME280;43626;53.866;30.298;2023-03-03T20:04:12;1013;;;1.3;66.4
57799;BME280;43626;53.866;30.298;2023-03-03T20:08:39;1013;;;1.4;66.4
57799;BME280;43626;53.866;30.298;2023-03-03T20:13:41;1013;;;1.5;66.4
57799;BME280;43626;53.866;30.298;2023-03-03T20:19:04;1013;;;1.5;65.9
57799;BME280;43626;53.866;30.298;2023-03-03T20:24:16;1012.9;;;1.5;66
57799;BME280;43626;53.866;30.298;2023-03-03T20:29:00;1012.8;;;1.6;66
57799;BME280;43626;53.866;30.298;2023-03-03T20:33:59;1012.7;;;1.7;65.7
57799;BME280;43626;53.866;30.298;2023-03-03T20:38:28;1012.7;;;1.7;65.3
57799;BME280;43626;53.866;30.298;2023-03-03T20:44:03;1012.6;;;1.7;65.3
57799;BME280;43626;53.866;30.298;2023-03-03T20:49:16;1012.6;;;1.7;65.2
57799;BME280;43626;53.866;30.298;2023-03-03T20:54:03;1012.5;;;1.7;65.2
57799;BME280;43626;53.866;30.298;2023-03-03T20:58:30;1012.5;;;1.7;65.1
57799;BME280;43626;53.866;30.298;2023-03-03T21:03:49;1012.4;;;1.6;65.1
57799;BME280;43626;53.866;30.298;2023-03-03T21:08:38;1012.3;;;1.6;65
57799;BME280;43626;53.866;30.298;2023-03-03T21:14:15;1012.3;;;1.5;64.9
57799;BME280;43626;53.866;30.298;2023-03-03T21:19:02;1012.3;;;1.5;65
57799;BME280;43626;53.866;30.298;2023-03-03T21:23:37;1012.2;;;1.5;64.9
57799;BME280;43626;53.866;30.298;2023-03-03T21:29:04;1012.2;;;1.4;65.2
57799;BME280;43626;53.866;30.298;2023-03-03T21:34:01;1012.1;;;1.5;65.2
57799;BME280;43626;53.866;30.298;2023-03-03T21:39:29;1012.1;;;1.5;65
57799;BME280;43626;53.866;30.298;2023-03-03T21:43:59;1012;;;1.5;65
57799;BME280;43626;53.866;30.298;2023-03-03T21:48:38;1012;;;1.5;65
57799;BME280;43626;53.866;30.298;2023-03-03T21:53:27;1011.9;;;1.6;65
57799;BME280;43626;53.866;30.298;2023-03-03T21:59:01;1011.9;;;1.6;65
57799;BME280;43626;53.866;30.298;2023-03-03T22:04:13;1011.8;;;1.7;65.1
57799;BME280;43626;53.866;30.298;2023-03-03T22:09:01;1011.7;;;1.7;65
57799;BME280;43626;53.866;30.298;2023-03-03T22:13:27;1011.7;;;1.6;65.1
57799;BME280;43626;53.866;30.298;2023-03-03T22:18:49;1011.5;;;1.6;65.2
57799;BME280;43626;53.866;30.298;2023-03-03T22:24:01;1011.5;;;1.6;65.1
57799;BME280;43626;53.866;30.298;2023-03-03T22:29:11;1011.4;;;1.6;65.2
57799;BME280;43626;53.866;30.298;2023-03-03T22:34:01;1011.3;;;1.7;65.2
57799;BME280;43626;53.866;30.298;2023-03-03T22:38:47;1011.3;;;1.7;65.1
57799;BME280;43626;53.866;30.298;2023-03-03T22:43:37;1011.2;;;1.6;65.1
57799;BME280;43626;53.866;30.298;2023-03-03T22:48:27;1011.1;;;1.6;65.2
57799;BME280;43626;53.866;30.298;2023-03-03T22:54:13;1011.1;;;1.6;65
57799;BME280;43626;53.866;30.298;2023-03-03T22:59:01;1011;;;1.5;65.1
57799;BME280;43626;53.866;30.298;2023-03-03T23:03:27;1010.9;;;1.5;65.1
57799;BME280;43626;53.866;30.298;2023-03-03T23:08:37;1010.8;;;1.5;65
57799;BME280;43626;53.866;30.298;2023-03-03T23:13:39;1010.7;;;1.5;65
57799;BME280;43626;53.866;30.298;2023-03-03T23:19:01;1010.6;;;1.5;64.9
57799;BME280;43626;53.866;30.298;2023-03-03T23:23:49;1010.5;;;1.4;65.1
57799;BME280;43626;53.866;30.298;2023-03-03T23:28:47;1010.5;;;1.4;65.1
57799;BME280;43626;53.866;30.298;2023-03-03T23:33:47;1010.4;;;1.5;65
57799;BME280;43626;53.866;30.298;2023-03-03T23:38:37;1010.4;;;1.5;65
57799;BME280;43626;53.866;30.298;2023-03-03T23:44:07;1010.3;;;1.5;64.9
57799;BME280;43626;53.866;30.298;2023-03-03T23:48:59;1010.2;;;1.5;64.8
57799;BME280;43626;53.866;30.298;2023-03-03T23:53:35;1010.2;;;1.5;64.8
57799;BME280;43626;53.866;30.298;2023-03-03T23:58:35;1010;;;1.4;65
